sensor_id;sensor_type;location;lat;lon;timestamp;pressure;altitude;pressure_sealevel;temperature;humidity
34979;BME280;21185;50.978;13.720;2022-12-13T00:00:23;97884.06;;;-1.48;74.08
34979;BME280;21185;50.978;13.720;2022-12-13T00:05:24;97878.25;;;-1.50;74.11
34979;BME280;21185;50.978;13.720;2022-12-13T00:10:27;97868.97;;;-1.51;73.85
34979;BME280;21185;50.978;13.720;2022-12-13T00:15:29;97869.91;;;-1.52;74.06
34979;BME280;21185;50.978;13.720;2022-12-13T00:20:31;97871.44;;;-1.50;73.95
34979;BME280;21185;50.978;13.720;2022-12-13T00:25:32;97868.06;;;-1.50;73.71
34979;BME280;21185;50.978;13.720;2022-12-13T00:30:35;97857.16;;;-1.52;73.95
34979;BME280;21185;50.978;13.720;2022-12-13T00:35:40;97863.06;;;-1.52;73.86
34979;BME280;21185;50.978;13.720;2022-12-13T00:40:42;97864.91;;;-1.54;73.83
34979;BME280;21185;50.978;13.720;2022-12-13T00:45:44;97856.56;;;-1.56;73.64
34979;BME280;21185;50.978;13.720;2022-12-13T00:50:46;97856.66;;;-1.57;73.71
34979;BME280;21185;50.978;13.720;2022-12-13T00:55:48;97856.84;;;-1.60;73.66
34979;BME280;21185;50.978;13.720;2022-12-13T01:00:50;97857.94;;;-1.65;73.58
34979;BME280;21185;50.978;13.720;2022-12-13T01:05:52;97866.50;;;-1.66;73.47
34979;BME280;21185;50.978;13.720;2022-12-13T01:11:14;97862.31;;;-1.67;73.58
34979;BME280;21185;50.978;13.720;2022-12-13T01:16:16;97857.31;;;-1.68;73.33
34979;BME280;21185;50.978;13.720;2022-12-13T01:21:19;97864.03;;;-1.67;73.44
34979;BME280;21185;50.978;13.720;2022-12-13T01:26:22;97853.56;;;-1.63;73.56
34979;BME280;21185;50.978;13.720;2022-12-13T01:31:25;97849.81;;;-1.57;73.34
34979;BME280;21185;50.978;13.720;2022-12-13T01:36:27;97849.63;;;-1.54;73.43
34979;BME280;21185;50.978;13.720;2022-12-13T01:41:32;97853.72;;;-1.51;73.37
34979;BME280;21185;50.978;13.720;2022-12-13T01:46:34;97851.97;;;-1.51;73.24
34979;BME280;21185;50.978;13.720;2022-12-13T01:51:56;97853.00;;;-1.53;73.32
34979;BME280;21185;50.978;13.720;2022-12-13T01:57:04;97858.19;;;-1.55;73.54
34979;BME280;21185;50.978;13.720;2022-12-13T02:02:08;97855.63;;;-1.55;73.35
34979;BME280;21185;50.978;13.720;2022-12-13T02:07:14;97856.56;;;-1.56;73.25
34979;BME280;21185;50.978;13.720;2022-12-13T02:12:30;97854.00;;;-1.56;73.28
34979;BME280;21185;50.978;13.720;2022-12-13T02:17:38;97851.38;;;-1.54;73.27
34979;BME280;21185;50.978;13.720;2022-12-13T02:39:06;97841.03;;;-1.66;73.25
34979;BME280;21185;50.978;13.720;2022-12-13T02:44:16;97853.16;;;-1.69;73.12
34979;BME280;21185;50.978;13.720;2022-12-13T02:49:27;97849.25;;;-1.75;72.98
34979;BME280;21185;50.978;13.720;2022-12-13T02:54:30;97843.66;;;-1.80;72.84
34979;BME280;21185;50.978;13.720;2022-12-13T02:59:36;97843.22;;;-1.86;72.74
34979;BME280;21185;50.978;13.720;2022-12-13T03:11:07;97834.28;;;-2.06;72.45
34979;BME280;21185;50.978;13.720;2022-12-13T03:16:37;97841.56;;;-2.14;72.70
34979;BME280;21185;50.978;13.720;2022-12-13T03:21:43;97836.94;;;-2.22;72.47
34979;BME280;21185;50.978;13.720;2022-12-13T03:26:49;97835.50;;;-2.26;72.35
34979;BME280;21185;50.978;13.720;2022-12-13T03:31:53;97828.34;;;-2.34;72.25
34979;BME280;21185;50.978;13.720;2022-12-13T03:36:55;97830.44;;;-2.40;72.26
34979;BME280;21185;50.978;13.720;2022-12-13T03:42:01;97825.63;;;-2.45;72.16
34979;BME280;21185;50.978;13.720;2022-12-13T03:47:03;97819.09;;;-2.49;72.05
34979;BME280;21185;50.978;13.720;2022-12-13T03:52:05;97813.38;;;-2.52;72.15
34979;BME280;21185;50.978;13.720;2022-12-13T03:57:06;97804.41;;;-2.58;71.96
34979;BME280;21185;50.978;13.720;2022-12-13T04:02:08;97801.50;;;-2.66;71.79
34979;BME280;21185;50.978;13.720;2022-12-13T04:07:10;97802.88;;;-2.75;71.52
34979;BME280;21185;50.978;13.720;2022-12-13T04:12:23;97822.09;;;-2.85;71.38
34979;BME280;21185;50.978;13.720;2022-12-13T04:17:49;97820.09;;;-2.94;71.45
34979;BME280;21185;50.978;13.720;2022-12-13T04:22:51;97819.72;;;-3.02;71.04
34979;BME280;21185;50.978;13.720;2022-12-13T04:27:53;97813.63;;;-3.14;70.96
34979;BME280;21185;50.978;13.720;2022-12-13T04:32:55;97814.97;;;-3.22;71.04
34979;BME280;21185;50.978;13.720;2022-12-13T04:37:57;97817.06;;;-3.29;70.93
34979;BME280;21185;50.978;13.720;2022-12-13T04:42:59;97803.56;;;-3.30;71.04
34979;BME280;21185;50.978;13.720;2022-12-13T04:48:01;97806.09;;;-3.30;71.00
34979;BME280;21185;50.978;13.720;2022-12-13T04:53:02;97813.16;;;-3.35;70.63
34979;BME280;21185;50.978;13.720;2022-12-13T04:58:04;97815.66;;;-3.49;70.52
34979;BME280;21185;50.978;13.720;2022-12-13T05:03:06;97811.09;;;-3.58;70.75
34979;BME280;21185;50.978;13.720;2022-12-13T05:08:08;97801.28;;;-3.64;70.43
34979;BME280;21185;50.978;13.720;2022-12-13T05:13:10;97816.03;;;-3.71;70.16
34979;BME280;21185;50.978;13.720;2022-12-13T05:18:12;97817.19;;;-3.76;70.23
34979;BME280;21185;50.978;13.720;2022-12-13T05:23:14;97817.59;;;-3.84;70.13
34979;BME280;21185;50.978;13.720;2022-12-13T05:28:24;97826.09;;;-3.85;70.20
34979;BME280;21185;50.978;13.720;2022-12-13T05:33:29;97821.84;;;-3.84;69.99
34979;BME280;21185;50.978;13.720;2022-12-13T05:38:31;97818.59;;;-3.86;69.92
34979;BME280;21185;50.978;13.720;2022-12-13T05:43:33;97827.00;;;-3.86;69.97
34979;BME280;21185;50.978;13.720;2022-12-13T05:48:43;97825.22;;;-3.84;69.84
34979;BME280;21185;50.978;13.720;2022-12-13T05:53:45;97820.78;;;-3.80;69.81
34979;BME280;21185;50.978;13.720;2022-12-13T05:58:53;97819.06;;;-3.80;70.00
34979;BME280;21185;50.978;13.720;2022-12-13T06:03:55;97826.75;;;-3.81;69.52
34979;BME280;21185;50.978;13.720;2022-12-13T06:08:58;97825.94;;;-3.82;69.92
34979;BME280;21185;50.978;13.720;2022-12-13T06:14:00;97826.03;;;-3.83;69.67
34979;BME280;21185;50.978;13.720;2022-12-13T06:19:02;97834.94;;;-3.92;69.52
34979;BME280;21185;50.978;13.720;2022-12-13T06:24:05;97836.19;;;-3.99;69.44
34979;BME280;21185;50.978;13.720;2022-12-13T06:29:09;97838.16;;;-4.04;69.46
34979;BME280;21185;50.978;13.720;2022-12-13T06:34:12;97837.50;;;-4.08;69.53
34979;BME280;21185;50.978;13.720;2022-12-13T06:39:16;97839.13;;;-4.07;69.50
34979;BME280;21185;50.978;13.720;2022-12-13T06:44:18;97838.56;;;-4.12;69.41
34979;BME280;21185;50.978;13.720;2022-12-13T06:49:20;97845.34;;;-4.12;69.41
34979;BME280;21185;50.978;13.720;2022-12-13T06:54:22;97842.88;;;-4.14;69.31
34979;BME280;21185;50.978;13.720;2022-12-13T06:59:24;97850.66;;;-4.17;69.30
34979;BME280;21185;50.978;13.720;2022-12-13T07:04:26;97849.75;;;-4.16;69.54
34979;BME280;21185;50.978;13.720;2022-12-13T07:09:31;97844.53;;;-4.13;69.43
34979;BME280;21185;50.978;13.720;2022-12-13T07:14:33;97854.41;;;-4.08;69.44
34979;BME280;21185;50.978;13.720;2022-12-13T07:19:42;97853.28;;;-4.03;69.68
34979;BME280;21185;50.978;13.720;2022-12-13T07:24:45;97859.47;;;-3.93;69.93
34979;BME280;21185;50.978;13.720;2022-12-13T07:29:47;97858.09;;;-3.82;69.91
34979;BME280;21185;50.978;13.720;2022-12-13T07:34:48;97865.84;;;-3.70;70.14
34979;BME280;21185;50.978;13.720;2022-12-13T07:39:51;97862.53;;;-3.56;70.01
34979;BME280;21185;50.978;13.720;2022-12-13T07:44:59;97867.09;;;-3.47;70.24
34979;BME280;21185;50.978;13.720;2022-12-13T07:50:01;97871.03;;;-3.41;70.05
34979;BME280;21185;50.978;13.720;2022-12-13T07:55:03;97873.56;;;-3.41;70.05
34979;BME280;21185;50.978;13.720;2022-12-13T08:00:06;97883.69;;;-3.41;70.10
34979;BME280;21185;50.978;13.720;2022-12-13T08:05:13;97879.09;;;-3.35;70.24
34979;BME280;21185;50.978;13.720;2022-12-13T08:10:28;97872.53;;;-3.23;70.49
34979;BME280;21185;50.978;13.720;2022-12-13T08:15:30;97868.91;;;-3.19;70.30
34979;BME280;21185;50.978;13.720;2022-12-13T08:20:32;97869.66;;;-3.17;70.44
34979;BME280;21185;50.978;13.720;2022-12-13T08:25:34;97873.16;;;-3.19;70.45
34979;BME280;21185;50.978;13.720;2022-12-13T08:30:38;97869.91;;;-3.21;70.41
34979;BME280;21185;50.978;13.720;2022-12-13T08:35:40;97867.09;;;-3.17;70.72
34979;BME280;21185;50.978;13.720;2022-12-13T08:40:42;97872.81;;;-3.13;70.55
34979;BME280;21185;50.978;13.720;2022-12-13T08:45:44;97870.66;;;-3.05;70.56
34979;BME280;21185;50.978;13.720;2022-12-13T08:50:46;97878.47;;;-2.94;70.58
34979;BME280;21185;50.978;13.720;2022-12-13T08:55:48;97864.25;;;-2.82;70.49
34979;BME280;21185;50.978;13.720;2022-12-13T09:00:49;97873.44;;;-2.66;70.58
34979;BME280;21185;50.978;13.720;2022-12-13T09:05:51;97867.53;;;-2.52;70.71
34979;BME280;21185;50.978;13.720;2022-12-13T09:11:01;97857.47;;;-2.39;70.57
34979;BME280;21185;50.978;13.720;2022-12-13T09:16:23;97860.78;;;-2.10;70.80
34979;BME280;21185;50.978;13.720;2022-12-13T09:21:25;97861.72;;;-1.84;70.48
34979;BME280;21185;50.978;13.720;2022-12-13T09:26:32;97867.06;;;-1.75;70.58
34979;BME280;21185;50.978;13.720;2022-12-13T09:31:38;97868.22;;;-1.66;70.62
34979;BME280;21185;50.978;13.720;2022-12-13T09:36:41;97868.13;;;-1.65;70.78
34979;BME280;21185;50.978;13.720;2022-12-13T09:41:46;97867.72;;;-1.58;70.79
34979;BME280;21185;50.978;13.720;2022-12-13T09:46:51;97869.06;;;-1.53;70.68
34979;BME280;21185;50.978;13.720;2022-12-13T09:52:03;97862.25;;;-1.52;70.76
34979;BME280;21185;50.978;13.720;2022-12-13T09:57:31;97857.69;;;-1.47;70.69
34979;BME280;21185;50.978;13.720;2022-12-13T10:03:01;97843.75;;;-1.42;70.83
34979;BME280;21185;50.978;13.720;2022-12-13T10:08:10;97843.56;;;-1.39;70.65
34979;BME280;21185;50.978;13.720;2022-12-13T10:18:33;97837.44;;;-1.49;70.71
34979;BME280;21185;50.978;13.720;2022-12-13T10:23:36;97839.69;;;-1.44;70.83
34979;BME280;21185;50.978;13.720;2022-12-13T10:29:03;97829.13;;;-1.38;70.76
34979;BME280;21185;50.978;13.720;2022-12-13T10:34:24;97830.66;;;-1.36;70.87
34979;BME280;21185;50.978;13.720;2022-12-13T10:39:40;97817.53;;;-1.29;70.82
34979;BME280;21185;50.978;13.720;2022-12-13T10:44:42;97817.41;;;-1.28;70.71
34979;BME280;21185;50.978;13.720;2022-12-13T10:49:54;97810.81;;;-1.31;70.83
34979;BME280;21185;50.978;13.720;2022-12-13T10:55:03;97807.75;;;-1.36;70.63
34979;BME280;21185;50.978;13.720;2022-12-13T11:00:37;97815.66;;;-1.40;70.55
34979;BME280;21185;50.978;13.720;2022-12-13T11:05:40;97809.06;;;-1.43;70.65
34979;BME280;21185;50.978;13.720;2022-12-13T11:10:42;97804.47;;;-1.38;70.58
34979;BME280;21185;50.978;13.720;2022-12-13T11:15:44;97794.81;;;-1.33;70.54
34979;BME280;21185;50.978;13.720;2022-12-13T11:21:06;97787.50;;;-1.24;70.36
34979;BME280;21185;50.978;13.720;2022-12-13T11:26:21;97789.84;;;-1.21;70.40
34979;BME280;21185;50.978;13.720;2022-12-13T11:37:01;97788.00;;;-1.19;70.43
34979;BME280;21185;50.978;13.720;2022-12-13T11:47:41;97782.91;;;-1.19;70.38
34979;BME280;21185;50.978;13.720;2022-12-13T11:52:52;97784.53;;;-1.18;70.46
34979;BME280;21185;50.978;13.720;2022-12-13T11:58:14;97791.25;;;-1.17;70.51
34979;BME280;21185;50.978;13.720;2022-12-13T12:03:55;97787.09;;;-1.18;70.45
34979;BME280;21185;50.978;13.720;2022-12-13T12:09:04;97782.19;;;-1.21;70.55
34979;BME280;21185;50.978;13.720;2022-12-13T12:19:55;97785.84;;;-1.38;70.83
34979;BME280;21185;50.978;13.720;2022-12-13T12:51:52;97775.69;;;-1.25;70.75
34979;BME280;21185;50.978;13.720;2022-12-13T13:02:25;97775.97;;;-1.30;70.67
34979;BME280;21185;50.978;13.720;2022-12-13T13:07:41;97768.75;;;-1.36;70.48
34979;BME280;21185;50.978;13.720;2022-12-13T13:12:53;97769.66;;;-1.50;70.48
34979;BME280;21185;50.978;13.720;2022-12-13T13:18:50;97780.63;;;-1.62;70.70
34979;BME280;21185;50.978;13.720;2022-12-13T13:24:12;97780.47;;;-1.73;70.68
34979;BME280;21185;50.978;13.720;2022-12-13T13:34:30;97768.75;;;-1.88;70.44
34979;BME280;21185;50.978;13.720;2022-12-13T13:39:37;97775.03;;;-1.94;70.37
34979;BME280;21185;50.978;13.720;2022-12-13T13:44:58;97776.84;;;-1.96;70.34
34979;BME280;21185;50.978;13.720;2022-12-13T14:27:34;97796.38;;;-2.23;69.72
34979;BME280;21185;50.978;13.720;2022-12-13T14:32:33;97798.47;;;-2.30;69.74
34979;BME280;21185;50.978;13.720;2022-12-13T14:37:37;97800.84;;;-2.41;69.53
34979;BME280;21185;50.978;13.720;2022-12-13T14:42:40;97805.47;;;-2.48;69.39
34979;BME280;21185;50.978;13.720;2022-12-13T14:47:48;97801.78;;;-2.56;69.40
34979;BME280;21185;50.978;13.720;2022-12-13T14:52:51;97807.22;;;-2.63;69.26
34979;BME280;21185;50.978;13.720;2022-12-13T14:57:55;97801.06;;;-2.73;69.29
34979;BME280;21185;50.978;13.720;2022-12-13T15:03:00;97800.69;;;-2.81;69.01
34979;BME280;21185;50.978;13.720;2022-12-13T15:08:07;97795.25;;;-2.89;69.10
34979;BME280;21185;50.978;13.720;2022-12-13T15:18:26;97784.38;;;-3.05;68.94
34979;BME280;21185;50.978;13.720;2022-12-13T15:23:37;97781.47;;;-3.13;68.88
34979;BME280;21185;50.978;13.720;2022-12-13T15:28:55;97790.34;;;-3.20;68.75
34979;BME280;21185;50.978;13.720;2022-12-13T15:34:31;97783.97;;;-3.28;68.67
34979;BME280;21185;50.978;13.720;2022-12-13T15:39:37;97780.91;;;-3.33;68.61
34979;BME280;21185;50.978;13.720;2022-12-13T15:44:45;97788.69;;;-3.36;68.60
34979;BME280;21185;50.978;13.720;2022-12-13T15:54:59;97792.72;;;-3.47;68.65
34979;BME280;21185;50.978;13.720;2022-12-13T16:05:27;97790.88;;;-3.60;68.63
34979;BME280;21185;50.978;13.720;2022-12-13T16:10:30;97782.72;;;-3.65;68.48
34979;BME280;21185;50.978;13.720;2022-12-13T16:15:54;97791.41;;;-3.69;68.40
34979;BME280;21185;50.978;13.720;2022-12-13T16:21:01;97790.94;;;-3.75;68.23
34979;BME280;21185;50.978;13.720;2022-12-13T16:26:02;97786.13;;;-3.80;68.10
34979;BME280;21185;50.978;13.720;2022-12-13T16:31:16;97780.47;;;-3.85;68.07
34979;BME280;21185;50.978;13.720;2022-12-13T16:36:18;97784.09;;;-3.89;68.16
34979;BME280;21185;50.978;13.720;2022-12-13T16:41:20;97772.50;;;-3.93;68.03
34979;BME280;21185;50.978;13.720;2022-12-13T16:46:23;97773.47;;;-3.96;68.10
34979;BME280;21185;50.978;13.720;2022-12-13T16:51:49;97771.91;;;-3.98;67.87
34979;BME280;21185;50.978;13.720;2022-12-13T16:56:52;97757.88;;;-4.04;67.83
34979;BME280;21185;50.978;13.720;2022-12-13T17:01:54;97749.63;;;-4.07;67.88
34979;BME280;21185;50.978;13.720;2022-12-13T17:06:56;97754.78;;;-4.09;67.73
34979;BME280;21185;50.978;13.720;2022-12-13T17:11:58;97753.31;;;-4.13;67.62
34979;BME280;21185;50.978;13.720;2022-12-13T17:17:00;97747.50;;;-4.15;67.71
34979;BME280;21185;50.978;13.720;2022-12-13T17:22:02;97747.69;;;-4.18;67.91
34979;BME280;21185;50.978;13.720;2022-12-13T17:27:04;97755.44;;;-4.21;67.52
34979;BME280;21185;50.978;13.720;2022-12-13T17:32:06;97757.41;;;-4.26;67.37
34979;BME280;21185;50.978;13.720;2022-12-13T17:37:07;97747.59;;;-4.32;67.57
34979;BME280;21185;50.978;13.720;2022-12-13T17:42:11;97752.69;;;-4.32;67.65
34979;BME280;21185;50.978;13.720;2022-12-13T17:47:13;97740.91;;;-4.33;67.35
34979;BME280;21185;50.978;13.720;2022-12-13T17:52:15;97746.16;;;-4.36;67.65
34979;BME280;21185;50.978;13.720;2022-12-13T17:57:16;97740.25;;;-4.37;67.50
34979;BME280;21185;50.978;13.720;2022-12-13T18:02:18;97742.16;;;-4.40;67.40
34979;BME280;21185;50.978;13.720;2022-12-13T18:07:23;97746.22;;;-4.38;67.50
34979;BME280;21185;50.978;13.720;2022-12-13T18:12:25;97736.84;;;-4.36;67.50
34979;BME280;21185;50.978;13.720;2022-12-13T18:17:32;97735.13;;;-4.35;67.38
34979;BME280;21185;50.978;13.720;2022-12-13T18:22:54;97739.59;;;-4.40;67.46
34979;BME280;21185;50.978;13.720;2022-12-13T18:27:56;97730.78;;;-4.49;67.40
34979;BME280;21185;50.978;13.720;2022-12-13T18:33:02;97739.69;;;-4.58;67.13
34979;BME280;21185;50.978;13.720;2022-12-13T18:38:05;97734.88;;;-4.62;67.25
34979;BME280;21185;50.978;13.720;2022-12-13T18:43:07;97735.19;;;-4.68;67.41
34979;BME280;21185;50.978;13.720;2022-12-13T18:48:09;97737.06;;;-4.72;67.29
34979;BME280;21185;50.978;13.720;2022-12-13T18:53:11;97733.06;;;-4.76;67.17
34979;BME280;21185;50.978;13.720;2022-12-13T18:58:13;97729.88;;;-4.79;67.05
34979;BME280;21185;50.978;13.720;2022-12-13T19:03:16;97726.78;;;-4.84;67.13
34979;BME280;21185;50.978;13.720;2022-12-13T19:08:17;97709.22;;;-4.88;67.01
34979;BME280;21185;50.978;13.720;2022-12-13T19:13:20;97718.84;;;-4.94;66.90
34979;BME280;21185;50.978;13.720;2022-12-13T19:18:23;97712.31;;;-4.98;66.82
34979;BME280;21185;50.978;13.720;2022-12-13T19:23:25;97714.13;;;-5.00;66.73
34979;BME280;21185;50.978;13.720;2022-12-13T19:28:28;97726.84;;;-5.02;66.79
34979;BME280;21185;50.978;13.720;2022-12-13T19:33:30;97725.13;;;-5.01;66.75
34979;BME280;21185;50.978;13.720;2022-12-13T19:38:33;97716.06;;;-5.05;66.79
34979;BME280;21185;50.978;13.720;2022-12-13T19:43:35;97707.66;;;-5.06;66.80
34979;BME280;21185;50.978;13.720;2022-12-13T19:48:37;97701.94;;;-5.09;66.91
34979;BME280;21185;50.978;13.720;2022-12-13T19:53:39;97699.50;;;-5.11;66.78
34979;BME280;21185;50.978;13.720;2022-12-13T19:58:43;97695.47;;;-5.15;66.40
34979;BME280;21185;50.978;13.720;2022-12-13T20:03:45;97692.28;;;-5.18;66.62
34979;BME280;21185;50.978;13.720;2022-12-13T20:08:48;97693.38;;;-5.23;66.41
34979;BME280;21185;50.978;13.720;2022-12-13T20:13:53;97697.69;;;-5.25;66.40
34979;BME280;21185;50.978;13.720;2022-12-13T20:18:57;97693.69;;;-5.29;66.61
34979;BME280;21185;50.978;13.720;2022-12-13T20:24:00;97694.66;;;-5.31;66.17
34979;BME280;21185;50.978;13.720;2022-12-13T20:29:01;97697.28;;;-5.33;66.17
34979;BME280;21185;50.978;13.720;2022-12-13T20:34:05;97705.75;;;-5.34;66.19
34979;BME280;21185;50.978;13.720;2022-12-13T20:39:11;97691.63;;;-5.38;66.38
34979;BME280;21185;50.978;13.720;2022-12-13T20:44:13;97681.69;;;-5.41;66.14
34979;BME280;21185;50.978;13.720;2022-12-13T20:49:16;97692.53;;;-5.39;66.33
34979;BME280;21185;50.978;13.720;2022-12-13T20:54:18;97690.91;;;-5.40;66.06
34979;BME280;21185;50.978;13.720;2022-12-13T20:59:19;97680.78;;;-5.40;66.13
34979;BME280;21185;50.978;13.720;2022-12-13T21:04:21;97677.50;;;-5.42;66.20
34979;BME280;21185;50.978;13.720;2022-12-13T21:09:24;97678.34;;;-5.41;66.24
34979;BME280;21185;50.978;13.720;2022-12-13T21:14:27;97679.16;;;-5.41;66.40
34979;BME280;21185;50.978;13.720;2022-12-13T21:19:30;97668.06;;;-5.38;66.09
34979;BME280;21185;50.978;13.720;2022-12-13T21:24:41;97669.63;;;-5.36;66.21
34979;BME280;21185;50.978;13.720;2022-12-13T21:29:42;97672.97;;;-5.35;66.21
34979;BME280;21185;50.978;13.720;2022-12-13T21:34:44;97663.75;;;-5.36;66.20
34979;BME280;21185;50.978;13.720;2022-12-13T21:39:46;97660.41;;;-5.37;65.86
34979;BME280;21185;50.978;13.720;2022-12-13T21:44:48;97652.00;;;-5.37;66.28
34979;BME280;21185;50.978;13.720;2022-12-13T21:49:50;97639.50;;;-5.40;66.48
34979;BME280;21185;50.978;13.720;2022-12-13T21:54:52;97632.91;;;-5.43;66.44
34979;BME280;21185;50.978;13.720;2022-12-13T22:00:14;97628.75;;;-5.44;66.22
34979;BME280;21185;50.978;13.720;2022-12-13T22:05:16;97615.38;;;-5.46;66.15
34979;BME280;21185;50.978;13.720;2022-12-13T22:10:20;97623.03;;;-5.47;66.41
34979;BME280;21185;50.978;13.720;2022-12-13T22:15:22;97619.75;;;-5.49;66.37
34979;BME280;21185;50.978;13.720;2022-12-13T22:20:24;97618.94;;;-5.50;66.38
34979;BME280;21185;50.978;13.720;2022-12-13T22:25:26;97612.09;;;-5.48;66.21
34979;BME280;21185;50.978;13.720;2022-12-13T22:30:28;97611.22;;;-5.47;66.42
34979;BME280;21185;50.978;13.720;2022-12-13T22:35:29;97595.13;;;-5.46;66.41
34979;BME280;21185;50.978;13.720;2022-12-13T22:40:32;97607.53;;;-5.41;66.24
34979;BME280;21185;50.978;13.720;2022-12-13T22:45:34;97603.13;;;-5.38;66.44
34979;BME280;21185;50.978;13.720;2022-12-13T22:50:36;97599.41;;;-5.31;66.47
34979;BME280;21185;50.978;13.720;2022-12-13T22:55:38;97604.13;;;-5.25;66.47
34979;BME280;21185;50.978;13.720;2022-12-13T23:00:40;97594.75;;;-5.23;66.57
34979;BME280;21185;50.978;13.720;2022-12-13T23:05:43;97578.47;;;-5.18;66.50
34979;BME280;21185;50.978;13.720;2022-12-13T23:10:44;97578.41;;;-5.17;66.85
34979;BME280;21185;50.978;13.720;2022-12-13T23:16:05;97568.03;;;-5.12;66.69
34979;BME280;21185;50.978;13.720;2022-12-13T23:21:07;97564.44;;;-5.08;66.85
34979;BME280;21185;50.978;13.720;2022-12-13T23:26:14;97559.06;;;-5.02;67.10
34979;BME280;21185;50.978;13.720;2022-12-13T23:31:17;97552.94;;;-4.98;67.13
34979;BME280;21185;50.978;13.720;2022-12-13T23:36:22;97554.47;;;-4.96;67.22
34979;BME280;21185;50.978;13.720;2022-12-13T23:41:26;97543.38;;;-4.93;67.23
34979;BME280;21185;50.978;13.720;2022-12-13T23:46:34;97538.13;;;-4.90;67.47
34979;BME280;21185;50.978;13.720;2022-12-13T23:51:36;97525.31;;;-4.87;67.66
34979;BME280;21185;50.978;13.720;2022-12-13T23:56:38;97520.81;;;-4.82;67.48
